createdAt,value
2022-12-01T00:01:30.529Z,101820.00
2022-12-01T00:03:59.875Z,101796.00
2022-12-01T00:06:29.969Z,101804.00
2022-12-01T00:09:19.498Z,101827.00
2022-12-01T00:11:48.272Z,101833.00
2022-12-01T00:14:16.963Z,101827.00
2022-12-01T00:16:45.313Z,101833.00
2022-12-01T00:19:14.837Z,101818.00
2022-12-01T00:21:42.782Z,101841.00
2022-12-01T00:24:11.909Z,101838.00
2022-12-01T00:26:40.226Z,101811.00
2022-12-01T00:29:08.203Z,101788.00
2022-12-01T00:31:36.655Z,101822.00
2022-12-01T00:34:09.455Z,101840.00
2022-12-01T00:36:40.882Z,101807.00
2022-12-01T00:39:09.473Z,101824.00
2022-12-01T00:41:37.355Z,101817.00
2022-12-01T00:44:05.750Z,101844.00
2022-12-01T00:46:33.921Z,101823.00
2022-12-01T00:49:01.907Z,101793.00
2022-12-01T00:51:29.876Z,101789.00
2022-12-01T00:53:59.442Z,101847.00
2022-12-01T00:56:27.478Z,101827.00
2022-12-01T00:58:55.378Z,101807.00
2022-12-01T01:01:23.560Z,101824.00
2022-12-01T01:03:51.656Z,101820.00
2022-12-01T01:06:19.611Z,101837.00
2022-12-01T01:08:47.487Z,101819.00
2022-12-01T01:11:16.810Z,101830.00
2022-12-01T01:13:44.738Z,101827.00
2022-12-01T01:16:17.432Z,101838.00
2022-12-01T01:18:45.519Z,101820.00
2022-12-01T01:21:15.771Z,101850.00
2022-12-01T01:23:44.286Z,101845.00
2022-12-01T01:26:14.006Z,101816.00
2022-12-01T01:28:43.759Z,101827.00
2022-12-01T01:31:13.313Z,101853.00
2022-12-01T01:33:41.565Z,101853.00
2022-12-01T01:36:12.198Z,101848.00
2022-12-01T01:38:40.181Z,101851.00
2022-12-01T01:41:09.227Z,101836.00
2022-12-01T01:43:45.535Z,101856.00
2022-12-01T01:46:15.787Z,101874.00
2022-12-01T01:48:48.047Z,101863.00
2022-12-01T01:51:20.547Z,101856.00
2022-12-01T01:53:51.317Z,101852.00
2022-12-01T01:56:19.457Z,101827.00
2022-12-01T01:58:49.012Z,101848.00
2022-12-01T02:01:17.071Z,101842.00
2022-12-01T02:03:47.311Z,101856.00
2022-12-01T02:06:15.730Z,101856.00
2022-12-01T02:08:43.684Z,101857.00
2022-12-01T02:11:48.485Z,101859.00
2022-12-01T02:14:32.175Z,101816.00
2022-12-01T02:17:05.453Z,101854.00
2022-12-01T02:19:55.586Z,101855.00
2022-12-01T02:22:31.173Z,101859.00
2022-12-01T02:25:19.325Z,101816.00
2022-12-01T02:28:17.268Z,101873.00
2022-12-01T02:30:50.032Z,101870.00
2022-12-01T02:33:25.522Z,101830.00
2022-12-01T02:36:01.209Z,101848.00
2022-12-01T02:38:32.506Z,101871.00
2022-12-01T02:41:06.350Z,101844.00
2022-12-01T02:43:42.017Z,101844.00
2022-12-01T02:46:16.831Z,101856.00
2022-12-01T02:48:48.229Z,101863.00
2022-12-01T02:51:21.918Z,101861.00
2022-12-01T02:53:50.495Z,101864.00
2022-12-01T02:56:22.211Z,101854.00
2022-12-01T02:58:50.241Z,101823.00
2022-12-01T03:01:33.225Z,101881.00
2022-12-01T03:04:10.892Z,101875.00
2022-12-01T03:06:49.317Z,101852.00
2022-12-01T03:09:30.564Z,101862.00
2022-12-01T03:12:10.276Z,101869.00
2022-12-01T03:14:43.718Z,101834.00
2022-12-01T03:17:17.462Z,101845.00
2022-12-01T03:19:49.997Z,101821.00
2022-12-01T03:22:24.923Z,101871.00
2022-12-01T03:24:56.173Z,101848.00
2022-12-01T03:27:28.576Z,101846.00
2022-12-01T03:30:00.206Z,101850.00
2022-12-01T03:32:32.722Z,101869.00
2022-12-01T03:35:05.906Z,101877.00
2022-12-01T03:37:37.802Z,101875.00
2022-12-01T03:40:09.777Z,101825.00
2022-12-01T03:42:42.284Z,101887.00
2022-12-01T03:45:16.453Z,101887.00
2022-12-01T03:47:46.179Z,101882.00
2022-12-01T03:50:14.882Z,101875.00
2022-12-01T03:52:50.482Z,101897.00
2022-12-01T03:55:23.781Z,101847.00
2022-12-01T03:57:57.311Z,101847.00
2022-12-01T04:00:27.700Z,101853.00
2022-12-01T04:02:58.814Z,101874.00
2022-12-01T04:05:27.556Z,101874.00
2022-12-01T04:07:57.590Z,101851.00
2022-12-01T04:10:25.589Z,101878.00
2022-12-01T04:12:58.916Z,101860.00
2022-12-01T04:15:27.625Z,101882.00
2022-12-01T04:17:56.966Z,101806.00
2022-12-01T04:20:24.829Z,101893.00
2022-12-01T04:22:52.732Z,101891.00
2022-12-01T04:25:20.726Z,101883.00
2022-12-01T04:27:48.937Z,101880.00
2022-12-01T04:30:17.338Z,101849.00
2022-12-01T04:32:45.603Z,101841.00
2022-12-01T04:35:15.863Z,101882.00
2022-12-01T04:37:43.832Z,101896.00
2022-12-01T04:40:12.722Z,101880.00
2022-12-01T04:42:40.585Z,101841.00
2022-12-01T04:45:09.794Z,101879.00
2022-12-01T04:47:37.864Z,101875.00
2022-12-01T04:50:06.960Z,101875.00
2022-12-01T04:52:39.338Z,101834.00
2022-12-01T04:55:08.470Z,101883.00
2022-12-01T04:57:36.620Z,101890.00
2022-12-01T05:00:13.081Z,101881.00
2022-12-01T05:02:43.325Z,101869.00
2022-12-01T05:05:11.591Z,101864.00
2022-12-01T05:07:41.652Z,101909.00
2022-12-01T05:10:10.334Z,101910.00
2022-12-01T05:12:38.282Z,101852.00
2022-12-01T05:15:07.243Z,101863.00
2022-12-01T05:17:37.138Z,101904.00
2022-12-01T05:20:26.410Z,101908.00
2022-12-01T05:23:08.119Z,101862.00
2022-12-01T05:25:37.725Z,101879.00
2022-12-01T05:28:06.603Z,101870.00
2022-12-01T05:30:38.118Z,101896.00
2022-12-01T05:33:09.063Z,101860.00
2022-12-01T05:35:37.909Z,101893.00
2022-12-01T05:38:08.167Z,101912.00
2022-12-01T05:40:39.058Z,101909.00
2022-12-01T05:43:07.800Z,101870.00
2022-12-01T05:45:36.189Z,101930.00
2022-12-01T05:48:07.009Z,101861.00
2022-12-01T05:50:38.531Z,101919.00
2022-12-01T05:53:09.736Z,101879.00
2022-12-01T05:55:37.677Z,101902.00
2022-12-01T05:58:05.615Z,101906.00
2022-12-01T06:00:33.659Z,101915.00
2022-12-01T06:03:10.519Z,101873.00
2022-12-01T06:05:38.600Z,101880.00
2022-12-01T06:08:14.450Z,101944.00
2022-12-01T06:10:46.992Z,101957.00
2022-12-01T06:13:22.268Z,101925.00
2022-12-01T06:16:19.514Z,101910.00
2022-12-01T06:19:02.293Z,101934.00
2022-12-01T06:21:34.538Z,101922.00
2022-12-01T06:24:07.042Z,101962.00
2022-12-01T06:26:36.242Z,101958.00
2022-12-01T06:29:04.076Z,101935.00
2022-12-01T06:31:31.915Z,101892.00
2022-12-01T06:33:59.799Z,101948.00
2022-12-01T06:36:27.788Z,101949.00
2022-12-01T06:38:55.624Z,101949.00
2022-12-01T06:41:24.794Z,101971.00
2022-12-01T06:43:52.622Z,101948.00
2022-12-01T06:46:20.507Z,101953.00
2022-12-01T06:48:49.328Z,101907.00
2022-12-01T06:51:17.116Z,101965.00
2022-12-01T06:53:45.096Z,101966.00
2022-12-01T06:56:13.395Z,101952.00
2022-12-01T06:58:43.054Z,101936.00
2022-12-01T07:01:12.401Z,101960.00
2022-12-01T07:03:40.917Z,101960.00
2022-12-01T07:06:08.875Z,101969.00
2022-12-01T07:08:36.873Z,101990.00
2022-12-01T07:11:07.677Z,101982.00
2022-12-01T07:13:35.979Z,101951.00
2022-12-01T07:16:35.216Z,101974.00
2022-12-01T07:19:24.391Z,101990.00
2022-12-01T07:21:52.724Z,101952.00
2022-12-01T07:24:20.761Z,101979.00
2022-12-01T07:26:49.415Z,101955.00
2022-12-01T07:29:17.798Z,101975.00
2022-12-01T07:31:47.200Z,101954.00
2022-12-01T07:34:15.129Z,101967.00
2022-12-01T07:36:44.654Z,101982.00
2022-12-01T07:39:25.342Z,101992.00
2022-12-01T07:41:55.707Z,101995.00
2022-12-01T07:44:27.455Z,101975.00
2022-12-01T07:47:08.621Z,101988.00
2022-12-01T07:49:42.802Z,101981.00
2022-12-01T07:52:11.293Z,101976.00
2022-12-01T07:54:55.803Z,101995.00
2022-12-01T07:57:26.024Z,101989.00
2022-12-01T08:00:08.681Z,102000.00
2022-12-01T08:02:38.713Z,102017.00
2022-12-01T08:05:09.480Z,102002.00
2022-12-01T08:07:38.605Z,102013.00
2022-12-01T08:10:07.569Z,101990.00
2022-12-01T08:12:48.352Z,102008.00
2022-12-01T08:15:19.259Z,101980.00
2022-12-01T08:17:56.031Z,102014.00
2022-12-01T08:20:36.241Z,101970.00
2022-12-01T08:23:04.897Z,101980.00
2022-12-01T08:25:35.627Z,101987.00
2022-12-01T08:28:14.801Z,102025.00
2022-12-01T08:30:43.592Z,102003.00
2022-12-01T08:33:13.829Z,102013.00
2022-12-01T08:35:55.978Z,102023.00
2022-12-01T08:41:25.264Z,102004.00
2022-12-01T08:44:19.361Z,102033.00
2022-12-01T08:46:55.043Z,102010.00
2022-12-01T08:49:46.424Z,102041.00
2022-12-01T08:52:28.255Z,102041.00
2022-12-01T08:55:03.816Z,102009.00
2022-12-01T08:57:42.534Z,101972.00
2022-12-01T09:00:32.633Z,101997.00
2022-12-01T09:03:28.363Z,102029.00
2022-12-01T09:09:46.207Z,102052.00
2022-12-01T09:12:34.217Z,102041.00
2022-12-01T09:15:02.488Z,102044.00
2022-12-01T09:18:07.336Z,102046.00
2022-12-01T09:20:45.426Z,102012.00
2022-12-01T09:23:22.262Z,102054.00
2022-12-01T09:26:14.456Z,102054.00
2022-12-01T09:28:48.989Z,102021.00
2022-12-01T09:31:24.852Z,102011.00
2022-12-01T09:34:09.447Z,102058.00
2022-12-01T09:36:49.357Z,102046.00
2022-12-01T09:39:35.638Z,102048.00
2022-12-01T09:42:09.747Z,102000.00
2022-12-01T09:44:42.718Z,101985.00
2022-12-01T09:47:23.604Z,102022.00
2022-12-01T09:49:57.345Z,102008.00
2022-12-01T09:52:33.844Z,102003.00
2022-12-01T09:55:20.273Z,102024.00
2022-12-01T09:57:58.583Z,101973.00
2022-12-01T10:00:43.760Z,102028.00
2022-12-01T10:03:25.876Z,101995.00
2022-12-01T10:06:25.898Z,102015.00
2022-12-01T10:09:00.796Z,102036.00
2022-12-01T10:11:37.837Z,102008.00
2022-12-01T10:14:20.314Z,102024.00
2022-12-01T10:17:19.287Z,101989.00
2022-12-01T10:20:02.632Z,102024.00
2022-12-01T10:22:53.881Z,101989.00
2022-12-01T10:25:24.011Z,101998.00
2022-12-01T10:28:25.719Z,101974.00
2022-12-01T10:30:56.836Z,101955.00
2022-12-01T10:33:27.694Z,101971.00
2022-12-01T10:36:03.628Z,102010.00
2022-12-01T10:38:36.898Z,101995.00
2022-12-01T10:41:06.913Z,101978.00
2022-12-01T10:43:45.974Z,102005.00
2022-12-01T10:46:24.802Z,101999.00
2022-12-01T10:48:55.491Z,102000.00
2022-12-01T10:51:23.982Z,102024.00
2022-12-01T10:53:58.753Z,101951.00
2022-12-01T10:56:28.253Z,101961.00
2022-12-01T10:58:59.495Z,102013.00
2022-12-01T11:01:36.474Z,102000.00
2022-12-01T11:04:08.505Z,101977.00
2022-12-01T11:06:37.068Z,101982.00
2022-12-01T11:09:07.856Z,101982.00
2022-12-01T11:11:38.084Z,101996.00
2022-12-01T11:14:18.909Z,101987.00
2022-12-01T11:16:48.946Z,101991.00
2022-12-01T11:19:28.144Z,101949.00
2022-12-01T11:21:58.326Z,101982.00
2022-12-01T11:24:35.401Z,101968.00
2022-12-01T11:27:03.500Z,101991.00
2022-12-01T11:29:37.693Z,101972.00
2022-12-01T11:32:17.871Z,101996.00
2022-12-01T11:34:52.113Z,101986.00
2022-12-01T11:37:23.439Z,101946.00
2022-12-01T11:39:53.062Z,101948.00
2022-12-01T11:42:25.903Z,101996.00
2022-12-01T11:44:57.893Z,101981.00
2022-12-01T11:47:27.643Z,101982.00
2022-12-01T11:50:27.522Z,101971.00
2022-12-01T11:52:57.817Z,101980.00
2022-12-01T11:55:45.785Z,101950.00
2022-12-01T11:58:13.840Z,101945.00
2022-12-01T12:00:48.700Z,101975.00
2022-12-01T12:03:47.998Z,101987.00
2022-12-01T12:06:42.458Z,101978.00
2022-12-01T12:09:29.523Z,101975.00
2022-12-01T12:12:12.172Z,101920.00
2022-12-01T12:14:49.815Z,101972.00
2022-12-01T12:17:42.932Z,101974.00
2022-12-01T12:20:29.150Z,101966.00
2022-12-01T12:23:09.412Z,101986.00
2022-12-01T12:25:52.099Z,101971.00
2022-12-01T12:28:32.021Z,101962.00
2022-12-01T12:31:11.138Z,101971.00
2022-12-01T12:34:33.246Z,101966.00
2022-12-01T12:37:17.636Z,101958.00
2022-12-01T12:40:04.676Z,101943.00
2022-12-01T12:42:42.680Z,101964.00
2022-12-01T12:45:20.996Z,101912.00
2022-12-01T12:48:02.992Z,101952.00
2022-12-01T12:51:08.558Z,101927.00
2022-12-01T12:54:14.756Z,101955.00
2022-12-01T12:57:18.658Z,101963.00
2022-12-01T12:59:53.947Z,101971.00
2022-12-01T13:02:32.700Z,101962.00
2022-12-01T13:05:17.805Z,101958.00
2022-12-01T13:08:27.760Z,101968.00
2022-12-01T13:11:04.791Z,101958.00
2022-12-01T13:13:58.177Z,101896.00
2022-12-01T13:17:07.223Z,101947.00
2022-12-01T13:21:03.307Z,101896.00
2022-12-01T13:23:56.779Z,101890.00
2022-12-01T13:26:24.792Z,101929.00
2022-12-01T13:36:46.749Z,101939.00
2022-12-01T13:39:42.281Z,101927.00
2022-12-01T13:42:24.047Z,101915.00
2022-12-01T14:01:32.543Z,101950.00
2022-12-01T14:12:05.644Z,101945.00
2022-12-01T14:14:51.269Z,101923.00
2022-12-01T14:24:31.658Z,101960.00
2022-12-01T14:31:37.400Z,101966.00
2022-12-01T14:38:08.302Z,101987.00
2022-12-01T14:41:28.562Z,101988.00
2022-12-01T14:44:54.435Z,101909.00
2022-12-01T14:48:30.309Z,101977.00
2022-12-01T14:51:56.368Z,101983.00
2022-12-01T14:54:43.975Z,101984.00
2022-12-01T15:01:43.139Z,101971.00
2022-12-01T15:04:11.118Z,101982.00
2022-12-01T15:07:41.771Z,101927.00
2022-12-01T15:10:18.209Z,101954.00
2022-12-01T15:12:52.149Z,101932.00
2022-12-01T15:15:26.659Z,101972.00
2022-12-01T15:18:01.768Z,101955.00
2022-12-01T15:20:46.362Z,101955.00
2022-12-01T15:23:52.158Z,101899.00
2022-12-01T15:26:29.056Z,101955.00
2022-12-01T15:30:26.929Z,101915.00
2022-12-01T15:33:49.739Z,101908.00
2022-12-01T15:51:45.005Z,101884.00
2022-12-01T16:10:41.400Z,101956.00
2022-12-01T16:14:01.670Z,101957.00
2022-12-01T16:32:19.206Z,101913.00
2022-12-01T16:34:47.605Z,101926.00
2022-12-01T16:37:15.999Z,101920.00
2022-12-01T16:39:43.873Z,101939.00
2022-12-01T16:42:16.560Z,101902.00
2022-12-01T16:44:53.285Z,101922.00
2022-12-01T16:47:24.780Z,101969.00
2022-12-01T16:49:53.424Z,101953.00
2022-12-01T16:52:43.610Z,101952.00
2022-12-01T16:55:28.304Z,101920.00
2022-12-01T16:57:58.805Z,101966.00
2022-12-01T17:00:27.566Z,101959.00
2022-12-01T17:03:22.632Z,101952.00
2022-12-01T17:05:51.375Z,101976.00
2022-12-01T17:08:22.977Z,101942.00
2022-12-01T17:10:52.375Z,101966.00
2022-12-01T17:13:21.649Z,101960.00
2022-12-01T17:15:51.910Z,101950.00
2022-12-01T17:18:26.371Z,101959.00
2022-12-01T17:20:59.534Z,101943.00
2022-12-01T17:23:27.593Z,101962.00
2022-12-01T17:25:55.607Z,101903.00
2022-12-01T17:28:23.817Z,101969.00
2022-12-01T17:30:52.053Z,101907.00
2022-12-01T17:33:21.707Z,101916.00
2022-12-01T17:35:54.217Z,101944.00
2022-12-01T17:38:22.168Z,101956.00
2022-12-01T17:41:01.308Z,101910.00
2022-12-01T17:43:31.658Z,101985.00
2022-12-01T17:45:59.761Z,101923.00
2022-12-01T17:48:29.691Z,101981.00
2022-12-01T17:50:59.969Z,101952.00
2022-12-01T17:53:28.256Z,101939.00
2022-12-01T17:55:56.364Z,101973.00
2022-12-01T17:58:24.603Z,101923.00
2022-12-01T18:00:54.056Z,101969.00
2022-12-01T18:03:22.824Z,101943.00
2022-12-01T18:05:58.095Z,101923.00
2022-12-01T18:08:26.773Z,101961.00
2022-12-01T18:10:55.131Z,101991.00
2022-12-01T18:13:24.268Z,101970.00
2022-12-01T18:15:52.642Z,101970.00
2022-12-01T18:18:20.590Z,101973.00
2022-12-01T18:20:48.758Z,101982.00
2022-12-01T18:23:18.220Z,101893.00
2022-12-01T18:25:46.230Z,101968.00
2022-12-01T18:28:14.276Z,101970.00
2022-12-01T18:30:42.356Z,101914.00
2022-12-01T18:33:12.459Z,101973.00
2022-12-01T18:35:45.776Z,101969.00
2022-12-01T18:38:31.731Z,101915.00
2022-12-01T18:41:02.115Z,101927.00
2022-12-01T18:43:31.786Z,101947.00
2022-12-01T18:46:01.737Z,101926.00
2022-12-01T18:48:33.639Z,101996.00
2022-12-01T18:51:24.975Z,101982.00
2022-12-01T18:54:02.275Z,101974.00
2022-12-01T18:56:32.917Z,101984.00
2022-12-01T18:59:03.248Z,101930.00
2022-12-01T19:01:33.049Z,101973.00
2022-12-01T19:04:01.873Z,101938.00
2022-12-01T19:06:31.013Z,101993.00
2022-12-01T19:09:11.159Z,101926.00
2022-12-01T19:11:49.880Z,101963.00
2022-12-01T19:14:19.718Z,101961.00
2022-12-01T19:16:47.836Z,101954.00
2022-12-01T19:19:16.213Z,101932.00
2022-12-01T19:21:45.401Z,101914.00
2022-12-01T19:24:14.148Z,101927.00
2022-12-01T19:26:53.858Z,101985.00
2022-12-01T19:29:24.056Z,101960.00
2022-12-01T19:31:55.088Z,101969.00
2022-12-01T19:34:23.567Z,101941.00
2022-12-01T19:36:53.781Z,101949.00
2022-12-01T19:39:25.456Z,101975.00
2022-12-01T19:41:55.259Z,101971.00
2022-12-01T19:44:29.343Z,101944.00
2022-12-01T19:46:57.385Z,101943.00
2022-12-01T19:49:25.664Z,101960.00
2022-12-01T19:51:54.887Z,101967.00
2022-12-01T19:54:23.106Z,101938.00
2022-12-01T19:56:51.338Z,101957.00
2022-12-01T19:59:20.907Z,101934.00
2022-12-01T20:01:49.066Z,101933.00
2022-12-01T20:04:17.158Z,101976.00
2022-12-01T20:06:56.659Z,101973.00
2022-12-01T20:09:26.983Z,101926.00
2022-12-01T20:12:29.276Z,101981.00
2022-12-01T20:14:58.706Z,101956.00
2022-12-01T20:17:26.653Z,101914.00
2022-12-01T20:19:54.839Z,101934.00
2022-12-01T20:22:22.880Z,101963.00
2022-12-01T20:29:07.346Z,101949.00
2022-12-01T20:31:38.199Z,101964.00
2022-12-01T20:34:12.418Z,101978.00
2022-12-01T20:47:10.173Z,101977.00
2022-12-01T20:49:38.477Z,101981.00
2022-12-01T20:56:14.542Z,101945.00
2022-12-01T21:02:27.568Z,101964.00
2022-12-01T21:14:00.683Z,101919.00
2022-12-01T21:16:34.021Z,101923.00
2022-12-01T21:19:19.512Z,101976.00
2022-12-01T21:22:25.891Z,101915.00
2022-12-01T21:25:19.247Z,101940.00
2022-12-01T21:29:00.195Z,101950.00
2022-12-01T21:32:20.629Z,101931.00
2022-12-01T21:34:56.893Z,101932.00
2022-12-01T21:37:31.609Z,101898.00
2022-12-01T21:43:25.679Z,101895.00
2022-12-01T21:49:23.029Z,101944.00
2022-12-01T21:52:08.554Z,101920.00
2022-12-01T21:54:49.859Z,101948.00
2022-12-01T21:57:42.733Z,101952.00
2022-12-01T22:01:09.764Z,101948.00
2022-12-01T22:09:21.648Z,101906.00
2022-12-01T22:11:04.423Z,101897.00
2022-12-01T22:17:21.860Z,101921.00
2022-12-01T22:20:09.672Z,101934.00
2022-12-01T22:23:05.586Z,101944.00
2022-12-01T22:28:53.688Z,101906.00
2022-12-01T22:31:59.510Z,101908.00
2022-12-01T22:35:00.174Z,101941.00
2022-12-01T22:38:03.726Z,101927.00
2022-12-01T22:41:09.332Z,101930.00
2022-12-01T22:44:21.089Z,101888.00
2022-12-01T22:47:13.494Z,101926.00
2022-12-01T22:50:16.040Z,101915.00
2022-12-01T22:53:05.915Z,101873.00
2022-12-01T22:55:37.318Z,101906.00
2022-12-01T22:58:39.014Z,101925.00
2022-12-01T23:01:47.721Z,101936.00
2022-12-01T23:04:50.249Z,101928.00
2022-12-01T23:08:18.595Z,101900.00
2022-12-01T23:11:08.989Z,101915.00
2022-12-01T23:13:58.621Z,101915.00
2022-12-01T23:16:27.104Z,101905.00
2022-12-01T23:19:07.051Z,101928.00
2022-12-01T23:21:44.617Z,101890.00
2022-12-01T23:24:40.898Z,101920.00
2022-12-01T23:31:02.889Z,101898.00
2022-12-01T23:33:38.263Z,101845.00
2022-12-01T23:36:20.268Z,101885.00
2022-12-01T23:39:40.473Z,101902.00
2022-12-01T23:42:04.306Z,101890.00
2022-12-01T23:45:22.814Z,101843.00
2022-12-01T23:51:19.643Z,101864.00
2022-12-01T23:54:04.523Z,101882.00
2022-12-01T23:57:14.239Z,101881.00
